Terminal Aerodrome Forecast
Issued by NWS Wilmington, OH

Home | Current Version | Previous Version | Text Only | Print | Product List | Glossary On
Versions: 1 2 3 4 5 6 7 8 9 10 11 12 13 14 15 16 17 18 19 20 21 22 23
000
FTUS41 KILN 032000 AAA
TAFILN
TAF AMD
KILN 032034Z 0321/0418 06007KT P6SM VCSH BKN040
     FM040200 01005KT P6SM BKN060
      TEMPO 0408/0412 5SM BR
     FM041400 34006KT P6SM SCT040=

USA.gov is the U.S. government's official web portal to all federal, state and local government web resources and services.